sensor_id;sensor_type;location;lat;lon;timestamp;temperature;humidity
2663;DHT22;49701;48.072;7.800;2023-10-09T00:00:33;12.20;99.90
2663;DHT22;49701;48.072;7.800;2023-10-09T00:03:19;12.20;99.90
2663;DHT22;49701;48.072;7.800;2023-10-09T00:05:48;12.20;99.90
2663;DHT22;49701;48.072;7.800;2023-10-09T00:08:18;12.20;99.90
2663;DHT22;49701;48.072;7.800;2023-10-09T00:10:56;12.20;99.90
2663;DHT22;49701;48.072;7.800;2023-10-09T00:13:23;12.20;99.90
2663;DHT22;49701;48.072;7.800;2023-10-09T00:15:56;12.20;99.90
2663;DHT22;49701;48.072;7.800;2023-10-09T00:18:26;12.10;99.90
2663;DHT22;49701;48.072;7.800;2023-10-09T00:20:55;12.20;99.90
2663;DHT22;49701;48.072;7.800;2023-10-09T00:23:26;12.10;99.90
2663;DHT22;49701;48.072;7.800;2023-10-09T00:25:52;12.10;99.90
2663;DHT22;49701;48.072;7.800;2023-10-09T00:28:45;12.00;99.90
2663;DHT22;49701;48.072;7.800;2023-10-09T00:31:16;12.00;99.90
2663;DHT22;49701;48.072;7.800;2023-10-09T00:33:44;12.00;99.90
2663;DHT22;49701;48.072;7.800;2023-10-09T00:36:10;11.90;99.90
2663;DHT22;49701;48.072;7.800;2023-10-09T00:38:36;11.90;99.90
2663;DHT22;49701;48.072;7.800;2023-10-09T00:41:04;11.90;99.90
2663;DHT22;49701;48.072;7.800;2023-10-09T00:43:36;11.90;99.90
2663;DHT22;49701;48.072;7.800;2023-10-09T00:46:04;11.90;99.90
2663;DHT22;49701;48.072;7.800;2023-10-09T00:48:33;11.90;99.90
2663;DHT22;49701;48.072;7.800;2023-10-09T00:51:04;11.80;99.90
2663;DHT22;49701;48.072;7.800;2023-10-09T00:53:42;11.80;99.90
2663;DHT22;49701;48.072;7.800;2023-10-09T00:56:07;11.80;99.90
2663;DHT22;49701;48.072;7.800;2023-10-09T00:58:47;11.70;99.90
2663;DHT22;49701;48.072;7.800;2023-10-09T01:01:14;11.70;99.90
2663;DHT22;49701;48.072;7.800;2023-10-09T01:03:41;11.70;99.90
2663;DHT22;49701;48.072;7.800;2023-10-09T01:06:07;11.70;99.90
2663;DHT22;49701;48.072;7.800;2023-10-09T01:08:38;11.70;99.90
2663;DHT22;49701;48.072;7.800;2023-10-09T01:11:07;11.70;99.90
2663;DHT22;49701;48.072;7.800;2023-10-09T01:13:39;11.60;99.90
2663;DHT22;49701;48.072;7.800;2023-10-09T01:16:08;11.60;99.90
2663;DHT22;49701;48.072;7.800;2023-10-09T01:18:41;11.50;99.90
2663;DHT22;49701;48.072;7.800;2023-10-09T01:21:07;11.40;99.90
2663;DHT22;49701;48.072;7.800;2023-10-09T01:23:32;11.40;99.90
2663;DHT22;49701;48.072;7.800;2023-10-09T01:25:58;11.40;99.90
2663;DHT22;49701;48.072;7.800;2023-10-09T01:28:23;11.30;99.90
2663;DHT22;49701;48.072;7.800;2023-10-09T01:30:50;11.30;99.90
2663;DHT22;49701;48.072;7.800;2023-10-09T01:33:17;11.30;99.90
2663;DHT22;49701;48.072;7.800;2023-10-09T01:35:53;11.30;99.90
2663;DHT22;49701;48.072;7.800;2023-10-09T01:38:27;11.20;99.90
2663;DHT22;49701;48.072;7.800;2023-10-09T01:41:13;11.20;99.90
2663;DHT22;49701;48.072;7.800;2023-10-09T01:43:45;11.20;99.90
2663;DHT22;49701;48.072;7.800;2023-10-09T01:46:13;11.20;99.90
2663;DHT22;49701;48.072;7.800;2023-10-09T01:48:45;11.20;99.90
2663;DHT22;49701;48.072;7.800;2023-10-09T01:51:15;11.10;99.90
2663;DHT22;49701;48.072;7.800;2023-10-09T01:53:44;11.10;99.90
2663;DHT22;49701;48.072;7.800;2023-10-09T01:56:10;11.10;99.90
2663;DHT22;49701;48.072;7.800;2023-10-09T01:58:41;11.10;99.90
2663;DHT22;49701;48.072;7.800;2023-10-09T02:01:09;11.00;99.90
2663;DHT22;49701;48.072;7.800;2023-10-09T02:03:35;11.00;99.90
2663;DHT22;49701;48.072;7.800;2023-10-09T02:06:03;11.00;99.90
2663;DHT22;49701;48.072;7.800;2023-10-09T02:08:30;11.00;99.90
2663;DHT22;49701;48.072;7.800;2023-10-09T02:10:56;11.00;99.90
2663;DHT22;49701;48.072;7.800;2023-10-09T02:13:22;11.00;99.90
2663;DHT22;49701;48.072;7.800;2023-10-09T02:15:57;11.00;99.90
2663;DHT22;49701;48.072;7.800;2023-10-09T02:18:38;11.00;99.90
2663;DHT22;49701;48.072;7.800;2023-10-09T02:21:21;11.00;99.90
2663;DHT22;49701;48.072;7.800;2023-10-09T02:24:01;11.00;99.90
2663;DHT22;49701;48.072;7.800;2023-10-09T02:26:31;11.00;99.90
2663;DHT22;49701;48.072;7.800;2023-10-09T02:29:15;10.90;99.90
2663;DHT22;49701;48.072;7.800;2023-10-09T02:31:45;10.90;99.90
2663;DHT22;49701;48.072;7.800;2023-10-09T02:34:17;10.80;99.90
2663;DHT22;49701;48.072;7.800;2023-10-09T02:36:47;10.80;99.90
2663;DHT22;49701;48.072;7.800;2023-10-09T02:39:26;10.80;99.90
2663;DHT22;49701;48.072;7.800;2023-10-09T02:41:55;10.80;99.90
2663;DHT22;49701;48.072;7.800;2023-10-09T02:44:28;10.70;99.90
2663;DHT22;49701;48.072;7.800;2023-10-09T02:46:57;10.70;99.90
2663;DHT22;49701;48.072;7.800;2023-10-09T02:49:24;10.70;99.90
2663;DHT22;49701;48.072;7.800;2023-10-09T02:51:50;10.70;99.90
2663;DHT22;49701;48.072;7.800;2023-10-09T02:54:19;10.70;99.90
2663;DHT22;49701;48.072;7.800;2023-10-09T02:57:00;10.70;99.90
2663;DHT22;49701;48.072;7.800;2023-10-09T02:59:33;10.60;99.90
2663;DHT22;49701;48.072;7.800;2023-10-09T03:01:58;10.70;99.90
2663;DHT22;49701;48.072;7.800;2023-10-09T03:04:28;10.60;99.90
2663;DHT22;49701;48.072;7.800;2023-10-09T03:06:56;10.60;99.90
2663;DHT22;49701;48.072;7.800;2023-10-09T03:09:22;10.60;99.90
2663;DHT22;49701;48.072;7.800;2023-10-09T03:11:55;10.50;99.90
2663;DHT22;49701;48.072;7.800;2023-10-09T03:14:27;10.50;99.90
2663;DHT22;49701;48.072;7.800;2023-10-09T03:16:55;10.50;99.90
2663;DHT22;49701;48.072;7.800;2023-10-09T03:19:28;10.40;99.90
2663;DHT22;49701;48.072;7.800;2023-10-09T03:21:56;10.40;99.90
2663;DHT22;49701;48.072;7.800;2023-10-09T03:24:25;10.30;99.90
2663;DHT22;49701;48.072;7.800;2023-10-09T03:26:52;10.30;99.90
2663;DHT22;49701;48.072;7.800;2023-10-09T03:29:21;10.30;99.90
2663;DHT22;49701;48.072;7.800;2023-10-09T03:31:47;10.30;99.90
2663;DHT22;49701;48.072;7.800;2023-10-09T03:34:15;10.30;99.90
2663;DHT22;49701;48.072;7.800;2023-10-09T03:36:41;10.30;99.90
2663;DHT22;49701;48.072;7.800;2023-10-09T03:39:09;10.30;99.90
2663;DHT22;49701;48.072;7.800;2023-10-09T03:41:50;10.30;99.90
2663;DHT22;49701;48.072;7.800;2023-10-09T03:44:16;10.20;99.90
2663;DHT22;49701;48.072;7.800;2023-10-09T03:46:46;10.20;99.90
2663;DHT22;49701;48.072;7.800;2023-10-09T03:49:12;10.30;99.90
2663;DHT22;49701;48.072;7.800;2023-10-09T03:51:39;10.30;99.90
2663;DHT22;49701;48.072;7.800;2023-10-09T03:54:05;10.30;99.90
2663;DHT22;49701;48.072;7.800;2023-10-09T03:56:33;10.30;99.90
2663;DHT22;49701;48.072;7.800;2023-10-09T03:58:58;10.20;99.90
2663;DHT22;49701;48.072;7.800;2023-10-09T04:01:25;10.30;99.90
2663;DHT22;49701;48.072;7.800;2023-10-09T04:03:58;10.30;99.90
2663;DHT22;49701;48.072;7.800;2023-10-09T04:06:27;10.30;99.90
2663;DHT22;49701;48.072;7.800;2023-10-09T04:09:09;10.20;99.90
2663;DHT22;49701;48.072;7.800;2023-10-09T04:11:44;10.30;99.90
2663;DHT22;49701;48.072;7.800;2023-10-09T04:14:12;10.20;99.90
2663;DHT22;49701;48.072;7.800;2023-10-09T04:16:51;10.30;99.90
2663;DHT22;49701;48.072;7.800;2023-10-09T04:19:17;10.20;99.90
2663;DHT22;49701;48.072;7.800;2023-10-09T04:21:47;10.20;99.90
2663;DHT22;49701;48.072;7.800;2023-10-09T04:24:13;10.10;99.90
2663;DHT22;49701;48.072;7.800;2023-10-09T04:26:40;10.10;99.90
2663;DHT22;49701;48.072;7.800;2023-10-09T04:29:13;10.10;99.90
2663;DHT22;49701;48.072;7.800;2023-10-09T04:32:02;10.10;99.90
2663;DHT22;49701;48.072;7.800;2023-10-09T04:34:33;10.10;99.90
2663;DHT22;49701;48.072;7.800;2023-10-09T04:37:03;10.10;99.90
2663;DHT22;49701;48.072;7.800;2023-10-09T04:39:41;10.10;99.90
2663;DHT22;49701;48.072;7.800;2023-10-09T04:42:13;10.10;99.90
2663;DHT22;49701;48.072;7.800;2023-10-09T04:45:04;10.10;99.90
2663;DHT22;49701;48.072;7.800;2023-10-09T04:47:34;10.10;99.90
2663;DHT22;49701;48.072;7.800;2023-10-09T04:50:07;10.10;99.90
2663;DHT22;49701;48.072;7.800;2023-10-09T04:52:33;10.20;99.90
2663;DHT22;49701;48.072;7.800;2023-10-09T04:54:59;10.20;99.90
2663;DHT22;49701;48.072;7.800;2023-10-09T04:57:35;10.20;99.90
2663;DHT22;49701;48.072;7.800;2023-10-09T05:02:57;10.20;99.90
2663;DHT22;49701;48.072;7.800;2023-10-09T05:05:28;10.30;99.90
2663;DHT22;49701;48.072;7.800;2023-10-09T05:08:15;10.20;99.90
2663;DHT22;49701;48.072;7.800;2023-10-09T05:10:47;10.30;99.90
2663;DHT22;49701;48.072;7.800;2023-10-09T05:13:34;10.20;99.90
2663;DHT22;49701;48.072;7.800;2023-10-09T05:16:09;10.20;99.90
2663;DHT22;49701;48.072;7.800;2023-10-09T05:18:51;10.20;99.90
2663;DHT22;49701;48.072;7.800;2023-10-09T05:21:31;10.20;99.90
2663;DHT22;49701;48.072;7.800;2023-10-09T05:24:01;10.20;99.90
2663;DHT22;49701;48.072;7.800;2023-10-09T05:26:45;10.20;99.90
2663;DHT22;49701;48.072;7.800;2023-10-09T05:29:30;10.30;99.90
2663;DHT22;49701;48.072;7.800;2023-10-09T05:31:59;10.30;99.90
2663;DHT22;49701;48.072;7.800;2023-10-09T05:34:31;10.50;99.90
2663;DHT22;49701;48.072;7.800;2023-10-09T05:37:03;10.50;99.90
2663;DHT22;49701;48.072;7.800;2023-10-09T05:39:47;10.60;99.90
2663;DHT22;49701;48.072;7.800;2023-10-09T05:42:31;10.60;99.90
2663;DHT22;49701;48.072;7.800;2023-10-09T05:45:09;10.70;99.90
2663;DHT22;49701;48.072;7.800;2023-10-09T05:50:19;10.70;99.90
2663;DHT22;49701;48.072;7.800;2023-10-09T05:52:44;10.80;99.90
2663;DHT22;49701;48.072;7.800;2023-10-09T05:55:16;10.90;99.90
2663;DHT22;49701;48.072;7.800;2023-10-09T05:57:44;10.90;99.90
2663;DHT22;49701;48.072;7.800;2023-10-09T06:00:29;11.00;99.90
2663;DHT22;49701;48.072;7.800;2023-10-09T06:03:13;11.00;99.90
2663;DHT22;49701;48.072;7.800;2023-10-09T06:05:45;11.00;99.90
2663;DHT22;49701;48.072;7.800;2023-10-09T06:08:30;11.00;99.90
2663;DHT22;49701;48.072;7.800;2023-10-09T06:11:08;11.00;99.90
2663;DHT22;49701;48.072;7.800;2023-10-09T06:13:52;11.10;99.90
2663;DHT22;49701;48.072;7.800;2023-10-09T06:16:36;11.10;99.90
2663;DHT22;49701;48.072;7.800;2023-10-09T06:19:10;11.20;99.90
2663;DHT22;49701;48.072;7.800;2023-10-09T06:21:45;11.30;99.90
2663;DHT22;49701;48.072;7.800;2023-10-09T06:24:29;11.40;99.90
2663;DHT22;49701;48.072;7.800;2023-10-09T06:27:01;11.50;99.90
2663;DHT22;49701;48.072;7.800;2023-10-09T06:29:29;11.60;99.90
2663;DHT22;49701;48.072;7.800;2023-10-09T06:32:11;11.80;99.90
2663;DHT22;49701;48.072;7.800;2023-10-09T06:34:57;12.00;99.90
2663;DHT22;49701;48.072;7.800;2023-10-09T06:37:42;12.10;99.90
2663;DHT22;49701;48.072;7.800;2023-10-09T06:40:33;12.00;99.90
2663;DHT22;49701;48.072;7.800;2023-10-09T06:43:03;11.90;99.90
2663;DHT22;49701;48.072;7.800;2023-10-09T06:45:52;11.90;99.90
2663;DHT22;49701;48.072;7.800;2023-10-09T06:48:44;11.80;99.90
2663;DHT22;49701;48.072;7.800;2023-10-09T06:51:21;11.80;99.90
2663;DHT22;49701;48.072;7.800;2023-10-09T06:53:59;11.70;99.90
2663;DHT22;49701;48.072;7.800;2023-10-09T06:56:29;11.70;99.90
2663;DHT22;49701;48.072;7.800;2023-10-09T06:58:59;11.70;99.90
2663;DHT22;49701;48.072;7.800;2023-10-09T07:01:25;11.80;99.90
2663;DHT22;49701;48.072;7.800;2023-10-09T07:04:06;11.80;99.90
2663;DHT22;49701;48.072;7.800;2023-10-09T07:06:50;11.90;99.90
2663;DHT22;49701;48.072;7.800;2023-10-09T07:09:16;12.10;99.90
2663;DHT22;49701;48.072;7.800;2023-10-09T07:11:45;12.20;99.90
2663;DHT22;49701;48.072;7.800;2023-10-09T07:14:23;12.30;99.90
2663;DHT22;49701;48.072;7.800;2023-10-09T07:16:58;12.30;99.90
2663;DHT22;49701;48.072;7.800;2023-10-09T07:19:28;12.40;99.90
2663;DHT22;49701;48.072;7.800;2023-10-09T07:22:02;12.60;99.90
2663;DHT22;49701;48.072;7.800;2023-10-09T07:24:29;12.80;99.90
2663;DHT22;49701;48.072;7.800;2023-10-09T07:27:08;13.00;99.90
2663;DHT22;49701;48.072;7.800;2023-10-09T07:29:35;13.20;99.90
2663;DHT22;49701;48.072;7.800;2023-10-09T07:32:13;13.50;99.90
2663;DHT22;49701;48.072;7.800;2023-10-09T07:34:49;13.90;99.90
2663;DHT22;49701;48.072;7.800;2023-10-09T07:37:25;14.30;99.90
2663;DHT22;49701;48.072;7.800;2023-10-09T07:39:58;14.60;99.90
2663;DHT22;49701;48.072;7.800;2023-10-09T07:42:25;15.00;99.90
2663;DHT22;49701;48.072;7.800;2023-10-09T07:45:06;15.20;99.90
2663;DHT22;49701;48.072;7.800;2023-10-09T07:47:58;15.30;99.90
2663;DHT22;49701;48.072;7.800;2023-10-09T07:50:36;15.40;99.90
2663;DHT22;49701;48.072;7.800;2023-10-09T07:53:12;15.60;99.90
2663;DHT22;49701;48.072;7.800;2023-10-09T07:55:44;15.70;99.90
2663;DHT22;49701;48.072;7.800;2023-10-09T07:58:20;15.70;99.90
2663;DHT22;49701;48.072;7.800;2023-10-09T08:00:56;15.80;99.90
2663;DHT22;49701;48.072;7.800;2023-10-09T08:03:33;16.10;99.90
2663;DHT22;49701;48.072;7.800;2023-10-09T08:06:00;16.40;99.90
2663;DHT22;49701;48.072;7.800;2023-10-09T08:08:46;16.60;99.90
2663;DHT22;49701;48.072;7.800;2023-10-09T08:11:31;16.70;99.90
2663;DHT22;49701;48.072;7.800;2023-10-09T08:14:06;16.90;99.90
2663;DHT22;49701;48.072;7.800;2023-10-09T08:16:50;16.90;99.90
2663;DHT22;49701;48.072;7.800;2023-10-09T08:19:34;17.10;99.90
2663;DHT22;49701;48.072;7.800;2023-10-09T08:22:00;17.30;99.90
2663;DHT22;49701;48.072;7.800;2023-10-09T08:24:44;17.50;99.90
2663;DHT22;49701;48.072;7.800;2023-10-09T08:27:18;17.70;99.90
2663;DHT22;49701;48.072;7.800;2023-10-09T08:29:58;17.90;99.90
2663;DHT22;49701;48.072;7.800;2023-10-09T08:32:42;18.10;99.90
2663;DHT22;49701;48.072;7.800;2023-10-09T08:35:09;18.60;99.90
2663;DHT22;49701;48.072;7.800;2023-10-09T08:37:53;19.00;99.90
2663;DHT22;49701;48.072;7.800;2023-10-09T08:40:21;19.70;99.90
2663;DHT22;49701;48.072;7.800;2023-10-09T08:42:53;20.40;99.90
2663;DHT22;49701;48.072;7.800;2023-10-09T08:45:22;21.00;99.90
2663;DHT22;49701;48.072;7.800;2023-10-09T08:47:51;21.50;99.90
2663;DHT22;49701;48.072;7.800;2023-10-09T08:50:19;21.70;99.90
2663;DHT22;49701;48.072;7.800;2023-10-09T08:52:46;22.00;99.90
2663;DHT22;49701;48.072;7.800;2023-10-09T08:55:12;22.50;99.90
2663;DHT22;49701;48.072;7.800;2023-10-09T08:57:38;22.80;99.90
2663;DHT22;49701;48.072;7.800;2023-10-09T09:00:07;23.20;99.90
2663;DHT22;49701;48.072;7.800;2023-10-09T09:02:36;23.40;99.90
2663;DHT22;49701;48.072;7.800;2023-10-09T09:05:17;23.40;99.90
2663;DHT22;49701;48.072;7.800;2023-10-09T09:07:44;23.60;99.90
2663;DHT22;49701;48.072;7.800;2023-10-09T09:10:09;23.90;99.90
2663;DHT22;49701;48.072;7.800;2023-10-09T09:12:47;24.10;99.90
2663;DHT22;49701;48.072;7.800;2023-10-09T09:15:18;24.20;99.90
2663;DHT22;49701;48.072;7.800;2023-10-09T09:17:45;24.40;99.90
2663;DHT22;49701;48.072;7.800;2023-10-09T09:20:32;24.50;99.90
2663;DHT22;49701;48.072;7.800;2023-10-09T09:23:09;24.60;99.90
2663;DHT22;49701;48.072;7.800;2023-10-09T09:25:41;24.60;99.90
2663;DHT22;49701;48.072;7.800;2023-10-09T09:28:13;24.70;99.90
2663;DHT22;49701;48.072;7.800;2023-10-09T09:30:45;24.80;99.90
2663;DHT22;49701;48.072;7.800;2023-10-09T09:36:03;25.00;99.90
2663;DHT22;49701;48.072;7.800;2023-10-09T09:38:29;25.20;99.90
2663;DHT22;49701;48.072;7.800;2023-10-09T09:41:07;25.30;99.90
2663;DHT22;49701;48.072;7.800;2023-10-09T09:43:33;25.60;99.90
2663;DHT22;49701;48.072;7.800;2023-10-09T09:46:01;25.90;99.90
2663;DHT22;49701;48.072;7.800;2023-10-09T09:48:39;26.00;99.90
2663;DHT22;49701;48.072;7.800;2023-10-09T09:51:05;25.60;99.90
2663;DHT22;49701;48.072;7.800;2023-10-09T09:53:33;25.50;99.90
2663;DHT22;49701;48.072;7.800;2023-10-09T09:56:00;25.50;99.90
2663;DHT22;49701;48.072;7.800;2023-10-09T09:58:28;25.50;99.90
2663;DHT22;49701;48.072;7.800;2023-10-09T10:01:01;25.50;99.90
2663;DHT22;49701;48.072;7.800;2023-10-09T10:03:37;25.60;99.90
2663;DHT22;49701;48.072;7.800;2023-10-09T10:06:04;25.50;99.90
2663;DHT22;49701;48.072;7.800;2023-10-09T10:08:35;25.50;99.90
2663;DHT22;49701;48.072;7.800;2023-10-09T10:11:04;25.60;99.90
2663;DHT22;49701;48.072;7.800;2023-10-09T10:18:54;26.00;99.90
2663;DHT22;49701;48.072;7.800;2023-10-09T10:21:25;26.00;99.90
2663;DHT22;49701;48.072;7.800;2023-10-09T10:23:57;26.00;99.90
2663;DHT22;49701;48.072;7.800;2023-10-09T10:26:31;26.10;99.90
2663;DHT22;49701;48.072;7.800;2023-10-09T10:34:21;26.30;99.90
2663;DHT22;49701;48.072;7.800;2023-10-09T10:36:49;26.20;99.90
2663;DHT22;49701;48.072;7.800;2023-10-09T10:39:18;26.20;99.90
2663;DHT22;49701;48.072;7.800;2023-10-09T10:41:52;26.20;99.90
2663;DHT22;49701;48.072;7.800;2023-10-09T10:44:29;26.40;99.90
2663;DHT22;49701;48.072;7.800;2023-10-09T10:47:11;26.50;99.90
2663;DHT22;49701;48.072;7.800;2023-10-09T10:50:03;26.70;99.90
2663;DHT22;49701;48.072;7.800;2023-10-09T10:53:12;26.90;99.90
2663;DHT22;49701;48.072;7.800;2023-10-09T10:56:00;26.90;99.90
2663;DHT22;49701;48.072;7.800;2023-10-09T10:58:38;26.60;99.90
2663;DHT22;49701;48.072;7.800;2023-10-09T11:01:04;26.70;99.90
2663;DHT22;49701;48.072;7.800;2023-10-09T11:03:42;26.70;99.90
2663;DHT22;49701;48.072;7.800;2023-10-09T11:06:29;26.80;99.90
2663;DHT22;49701;48.072;7.800;2023-10-09T11:09:02;27.10;99.90
2663;DHT22;49701;48.072;7.800;2023-10-09T11:11:35;27.40;99.10
2663;DHT22;49701;48.072;7.800;2023-10-09T11:14:12;27.70;98.90
2663;DHT22;49701;48.072;7.800;2023-10-09T11:16:42;27.80;98.20
2663;DHT22;49701;48.072;7.800;2023-10-09T11:19:11;27.80;97.90
2663;DHT22;49701;48.072;7.800;2023-10-09T11:21:53;27.70;97.30
2663;DHT22;49701;48.072;7.800;2023-10-09T11:24:38;27.50;97.60
2663;DHT22;49701;48.072;7.800;2023-10-09T11:27:05;27.50;97.60
2663;DHT22;49701;48.072;7.800;2023-10-09T11:29:35;27.40;97.30
2663;DHT22;49701;48.072;7.800;2023-10-09T11:32:20;27.50;97.40
2663;DHT22;49701;48.072;7.800;2023-10-09T11:34:49;27.60;97.10
2663;DHT22;49701;48.072;7.800;2023-10-09T11:37:22;27.70;96.90
2663;DHT22;49701;48.072;7.800;2023-10-09T11:40:27;27.70;96.70
2663;DHT22;49701;48.072;7.800;2023-10-09T11:42:59;27.70;96.70
2663;DHT22;49701;48.072;7.800;2023-10-09T11:45:25;27.50;96.50
2663;DHT22;49701;48.072;7.800;2023-10-09T11:47:58;27.40;97.20
2663;DHT22;49701;48.072;7.800;2023-10-09T11:53:19;27.20;97.30
2663;DHT22;49701;48.072;7.800;2023-10-09T11:55:48;27.20;97.00
2663;DHT22;49701;48.072;7.800;2023-10-09T11:58:17;27.30;97.00
2663;DHT22;49701;48.072;7.800;2023-10-09T12:00:58;27.50;97.10
2663;DHT22;49701;48.072;7.800;2023-10-09T12:03:34;27.50;97.00
2663;DHT22;49701;48.072;7.800;2023-10-09T12:06:00;27.70;97.60
2663;DHT22;49701;48.072;7.800;2023-10-09T12:08:39;27.70;98.00
2663;DHT22;49701;48.072;7.800;2023-10-09T12:11:08;27.70;98.80
2663;DHT22;49701;48.072;7.800;2023-10-09T12:13:35;27.70;99.00
2663;DHT22;49701;48.072;7.800;2023-10-09T12:16:03;27.70;99.50
2663;DHT22;49701;48.072;7.800;2023-10-09T12:18:33;27.70;99.90
2663;DHT22;49701;48.072;7.800;2023-10-09T12:21:00;27.70;99.90
2663;DHT22;49701;48.072;7.800;2023-10-09T12:23:29;27.60;98.70
2663;DHT22;49701;48.072;7.800;2023-10-09T12:26:03;27.50;98.20
2663;DHT22;49701;48.072;7.800;2023-10-09T12:28:29;27.40;97.80
2663;DHT22;49701;48.072;7.800;2023-10-09T12:30:58;27.30;97.60
2663;DHT22;49701;48.072;7.800;2023-10-09T12:33:27;27.20;97.70
2663;DHT22;49701;48.072;7.800;2023-10-09T12:35:57;27.20;97.60
2663;DHT22;49701;48.072;7.800;2023-10-09T12:38:26;27.30;97.40
2663;DHT22;49701;48.072;7.800;2023-10-09T12:43:34;27.40;97.10
2663;DHT22;49701;48.072;7.800;2023-10-09T12:46:06;27.60;97.20
2663;DHT22;49701;48.072;7.800;2023-10-09T12:48:33;27.60;96.70
2663;DHT22;49701;48.072;7.800;2023-10-09T12:50:58;27.60;96.90
2663;DHT22;49701;48.072;7.800;2023-10-09T12:53:32;27.70;96.90
2663;DHT22;49701;48.072;7.800;2023-10-09T12:55:58;27.80;97.70
2663;DHT22;49701;48.072;7.800;2023-10-09T12:58:24;27.90;98.70
2663;DHT22;49701;48.072;7.800;2023-10-09T13:00:52;28.00;99.10
2663;DHT22;49701;48.072;7.800;2023-10-09T13:03:17;28.20;99.80
2663;DHT22;49701;48.072;7.800;2023-10-09T13:05:44;28.30;98.70
2663;DHT22;49701;48.072;7.800;2023-10-09T13:08:27;28.40;97.50
2663;DHT22;49701;48.072;7.800;2023-10-09T13:11:05;28.60;98.30
2663;DHT22;49701;48.072;7.800;2023-10-09T13:13:37;28.90;97.70
2663;DHT22;49701;48.072;7.800;2023-10-09T13:16:07;28.90;96.10
2663;DHT22;49701;48.072;7.800;2023-10-09T13:18:32;28.90;95.70
2663;DHT22;49701;48.072;7.800;2023-10-09T13:20:58;29.00;95.40
2663;DHT22;49701;48.072;7.800;2023-10-09T13:23:29;29.10;95.30
2663;DHT22;49701;48.072;7.800;2023-10-09T13:26:04;29.20;95.20
2663;DHT22;49701;48.072;7.800;2023-10-09T13:28:43;29.20;95.30
2663;DHT22;49701;48.072;7.800;2023-10-09T13:31:11;29.30;94.90
2663;DHT22;49701;48.072;7.800;2023-10-09T13:33:42;29.50;94.70
2663;DHT22;49701;48.072;7.800;2023-10-09T13:36:11;29.70;95.00
2663;DHT22;49701;48.072;7.800;2023-10-09T13:38:45;30.00;95.50
2663;DHT22;49701;48.072;7.800;2023-10-09T13:41:10;30.20;96.10
2663;DHT22;49701;48.072;7.800;2023-10-09T13:43:40;30.40;96.30
2663;DHT22;49701;48.072;7.800;2023-10-09T13:46:09;30.60;95.80
2663;DHT22;49701;48.072;7.800;2023-10-09T13:48:36;30.70;96.00
2663;DHT22;49701;48.072;7.800;2023-10-09T13:51:09;30.60;96.50
2663;DHT22;49701;48.072;7.800;2023-10-09T13:53:40;30.60;96.40
2663;DHT22;49701;48.072;7.800;2023-10-09T13:56:20;30.70;96.50
2663;DHT22;49701;48.072;7.800;2023-10-09T14:01:12;31.00;93.90
2663;DHT22;49701;48.072;7.800;2023-10-09T14:03:46;30.90;93.30
2663;DHT22;49701;48.072;7.800;2023-10-09T14:06:16;30.80;92.90
2663;DHT22;49701;48.072;7.800;2023-10-09T14:08:45;30.80;92.80
2663;DHT22;49701;48.072;7.800;2023-10-09T14:11:10;30.70;92.70
2663;DHT22;49701;48.072;7.800;2023-10-09T14:13:40;30.50;92.60
2663;DHT22;49701;48.072;7.800;2023-10-09T14:16:05;30.30;92.90
2663;DHT22;49701;48.072;7.800;2023-10-09T14:18:32;30.10;92.50
2663;DHT22;49701;48.072;7.800;2023-10-09T14:21:01;29.90;92.40
2663;DHT22;49701;48.072;7.800;2023-10-09T14:23:30;29.70;92.60
2663;DHT22;49701;48.072;7.800;2023-10-09T14:26:00;29.50;92.80
2663;DHT22;49701;48.072;7.800;2023-10-09T14:28:27;29.30;93.90
2663;DHT22;49701;48.072;7.800;2023-10-09T14:30:54;29.00;94.90
2663;DHT22;49701;48.072;7.800;2023-10-09T14:33:25;28.90;95.80
2663;DHT22;49701;48.072;7.800;2023-10-09T14:35:54;28.80;96.90
2663;DHT22;49701;48.072;7.800;2023-10-09T14:38:21;28.70;98.10
2663;DHT22;49701;48.072;7.800;2023-10-09T14:40:52;28.50;99.20
2663;DHT22;49701;48.072;7.800;2023-10-09T14:43:23;28.30;99.90
2663;DHT22;49701;48.072;7.800;2023-10-09T14:45:53;28.20;99.90
2663;DHT22;49701;48.072;7.800;2023-10-09T14:48:19;28.10;99.90
2663;DHT22;49701;48.072;7.800;2023-10-09T14:50:54;28.00;99.90
2663;DHT22;49701;48.072;7.800;2023-10-09T14:53:22;28.00;99.90
2663;DHT22;49701;48.072;7.800;2023-10-09T14:55:58;27.90;99.90
2663;DHT22;49701;48.072;7.800;2023-10-09T14:58:24;27.80;99.90
2663;DHT22;49701;48.072;7.800;2023-10-09T15:00:51;27.70;99.90
2663;DHT22;49701;48.072;7.800;2023-10-09T15:03:16;27.70;99.90
2663;DHT22;49701;48.072;7.800;2023-10-09T15:05:48;27.60;99.90
2663;DHT22;49701;48.072;7.800;2023-10-09T15:08:14;27.50;99.90
2663;DHT22;49701;48.072;7.800;2023-10-09T15:10:49;27.40;99.90
2663;DHT22;49701;48.072;7.800;2023-10-09T15:13:15;27.30;99.90
2663;DHT22;49701;48.072;7.800;2023-10-09T15:15:44;27.20;99.90
2663;DHT22;49701;48.072;7.800;2023-10-09T15:18:10;27.10;99.90
2663;DHT22;49701;48.072;7.800;2023-10-09T15:20:39;26.90;99.90
2663;DHT22;49701;48.072;7.800;2023-10-09T15:23:05;26.80;99.90
2663;DHT22;49701;48.072;7.800;2023-10-09T15:25:31;26.70;99.90
2663;DHT22;49701;48.072;7.800;2023-10-09T15:27:57;26.60;99.90
2663;DHT22;49701;48.072;7.800;2023-10-09T15:30:23;26.50;99.90
2663;DHT22;49701;48.072;7.800;2023-10-09T15:32:48;26.40;99.90
2663;DHT22;49701;48.072;7.800;2023-10-09T15:35:15;26.40;99.90
2663;DHT22;49701;48.072;7.800;2023-10-09T15:37:41;26.20;99.90
2663;DHT22;49701;48.072;7.800;2023-10-09T15:40:07;26.10;99.90
2663;DHT22;49701;48.072;7.800;2023-10-09T15:42:40;25.90;99.90
2663;DHT22;49701;48.072;7.800;2023-10-09T15:45:05;25.80;99.90
2663;DHT22;49701;48.072;7.800;2023-10-09T15:47:32;25.80;99.90
2663;DHT22;49701;48.072;7.800;2023-10-09T15:50:02;25.70;99.90
2663;DHT22;49701;48.072;7.800;2023-10-09T15:52:29;25.60;99.90
2663;DHT22;49701;48.072;7.800;2023-10-09T15:54:54;25.50;99.90
2663;DHT22;49701;48.072;7.800;2023-10-09T15:57:20;25.60;99.90
2663;DHT22;49701;48.072;7.800;2023-10-09T15:59:47;25.50;99.90
2663;DHT22;49701;48.072;7.800;2023-10-09T16:02:14;25.30;99.90
2663;DHT22;49701;48.072;7.800;2023-10-09T16:04:40;25.30;99.90
2663;DHT22;49701;48.072;7.800;2023-10-09T16:07:06;25.10;99.90
2663;DHT22;49701;48.072;7.800;2023-10-09T16:09:33;25.00;99.90
2663;DHT22;49701;48.072;7.800;2023-10-09T16:12:07;24.80;99.90
2663;DHT22;49701;48.072;7.800;2023-10-09T16:14:38;24.60;99.90
2663;DHT22;49701;48.072;7.800;2023-10-09T16:17:03;24.50;99.90
2663;DHT22;49701;48.072;7.800;2023-10-09T16:19:31;24.30;99.90
2663;DHT22;49701;48.072;7.800;2023-10-09T16:22:01;24.20;99.90
2663;DHT22;49701;48.072;7.800;2023-10-09T16:24:30;24.10;99.90
2663;DHT22;49701;48.072;7.800;2023-10-09T16:26:58;23.90;99.90
2663;DHT22;49701;48.072;7.800;2023-10-09T16:29:24;23.80;99.90
2663;DHT22;49701;48.072;7.800;2023-10-09T16:31:50;23.60;99.90
2663;DHT22;49701;48.072;7.800;2023-10-09T16:34:17;23.50;99.90
2663;DHT22;49701;48.072;7.800;2023-10-09T16:36:42;23.40;99.90
2663;DHT22;49701;48.072;7.800;2023-10-09T16:39:08;23.30;99.90
2663;DHT22;49701;48.072;7.800;2023-10-09T16:41:46;23.10;99.90